sensor_id;sensor_type;location;lat;lon;timestamp;P1;durP1;ratioP1;P2;durP2;ratioP2
2061;SDS011;11070;51.336;12.340;2023-04-03T00:00:52;2.80;;;1.73;;
2061;SDS011;11070;51.336;12.340;2023-04-03T00:03:18;4.23;;;2.00;;
2061;SDS011;11070;51.336;12.340;2023-04-03T00:05:45;3.10;;;1.77;;
2061;SDS011;11070;51.336;12.340;2023-04-03T00:08:11;3.05;;;1.58;;
2061;SDS011;11070;51.336;12.340;2023-04-03T00:10:37;4.30;;;2.43;;
2061;SDS011;11070;51.336;12.340;2023-04-03T00:13:04;3.90;;;2.05;;
2061;SDS011;11070;51.336;12.340;2023-04-03T00:15:30;4.55;;;2.05;;
2061;SDS011;11070;51.336;12.340;2023-04-03T00:17:56;3.35;;;2.20;;
2061;SDS011;11070;51.336;12.340;2023-04-03T00:20:22;3.03;;;1.73;;
2061;SDS011;11070;51.336;12.340;2023-04-03T00:22:47;3.80;;;2.00;;
2061;SDS011;11070;51.336;12.340;2023-04-03T00:25:13;3.83;;;1.90;;
2061;SDS011;11070;51.336;12.340;2023-04-03T00:27:39;5.30;;;1.90;;
2061;SDS011;11070;51.336;12.340;2023-04-03T00:30:06;3.63;;;2.08;;
2061;SDS011;11070;51.336;12.340;2023-04-03T00:32:34;3.05;;;1.80;;
2061;SDS011;11070;51.336;12.340;2023-04-03T00:34:59;4.63;;;1.63;;
2061;SDS011;11070;51.336;12.340;2023-04-03T00:37:25;3.17;;;1.97;;
2061;SDS011;11070;51.336;12.340;2023-04-03T00:39:51;3.23;;;1.97;;
2061;SDS011;11070;51.336;12.340;2023-04-03T00:42:16;6.90;;;2.23;;
2061;SDS011;11070;51.336;12.340;2023-04-03T00:47:10;3.30;;;1.92;;
2061;SDS011;11070;51.336;12.340;2023-04-03T00:49:38;5.97;;;1.90;;
2061;SDS011;11070;51.336;12.340;2023-04-03T00:52:08;2.95;;;1.85;;
2061;SDS011;11070;51.336;12.340;2023-04-03T00:54:37;3.60;;;1.67;;
2061;SDS011;11070;51.336;12.340;2023-04-03T00:57:05;3.30;;;2.10;;
2061;SDS011;11070;51.336;12.340;2023-04-03T00:59:33;2.75;;;1.90;;
2061;SDS011;11070;51.336;12.340;2023-04-03T01:02:02;5.25;;;2.03;;
2061;SDS011;11070;51.336;12.340;2023-04-03T01:06:58;2.60;;;1.83;;
2061;SDS011;11070;51.336;12.340;2023-04-03T01:09:29;2.92;;;2.22;;
2061;SDS011;11070;51.336;12.340;2023-04-03T01:12:12;5.43;;;2.07;;
2061;SDS011;11070;51.336;12.340;2023-04-03T01:14:49;4.03;;;2.22;;
2061;SDS011;11070;51.336;12.340;2023-04-03T01:17:25;4.05;;;2.20;;
2061;SDS011;11070;51.336;12.340;2023-04-03T01:19:55;8.52;;;2.50;;
2061;SDS011;11070;51.336;12.340;2023-04-03T01:22:45;4.25;;;2.58;;
2061;SDS011;11070;51.336;12.340;2023-04-03T01:25:26;6.97;;;2.17;;
2061;SDS011;11070;51.336;12.340;2023-04-03T01:27:52;7.60;;;2.20;;
2061;SDS011;11070;51.336;12.340;2023-04-03T01:30:18;4.07;;;2.07;;
2061;SDS011;11070;51.336;12.340;2023-04-03T01:32:45;4.88;;;2.17;;
2061;SDS011;11070;51.336;12.340;2023-04-03T01:35:11;3.77;;;1.83;;
2061;SDS011;11070;51.336;12.340;2023-04-03T01:37:37;5.38;;;2.28;;
2061;SDS011;11070;51.336;12.340;2023-04-03T01:40:04;4.67;;;2.60;;
2061;SDS011;11070;51.336;12.340;2023-04-03T01:42:30;4.13;;;1.95;;
2061;SDS011;11070;51.336;12.340;2023-04-03T01:44:56;3.20;;;1.87;;
2061;SDS011;11070;51.336;12.340;2023-04-03T01:47:22;9.07;;;1.87;;
2061;SDS011;11070;51.336;12.340;2023-04-03T01:49:48;5.30;;;2.50;;
2061;SDS011;11070;51.336;12.340;2023-04-03T01:52:13;4.77;;;1.97;;
2061;SDS011;11070;51.336;12.340;2023-04-03T01:54:39;2.80;;;1.90;;
2061;SDS011;11070;51.336;12.340;2023-04-03T01:57:05;4.67;;;2.37;;
2061;SDS011;11070;51.336;12.340;2023-04-03T01:59:30;2.70;;;2.00;;
2061;SDS011;11070;51.336;12.340;2023-04-03T02:01:56;3.87;;;2.27;;
2061;SDS011;11070;51.336;12.340;2023-04-03T02:04:22;4.70;;;2.20;;
2061;SDS011;11070;51.336;12.340;2023-04-03T02:06:47;3.60;;;1.97;;
2061;SDS011;11070;51.336;12.340;2023-04-03T02:09:13;4.50;;;2.22;;
2061;SDS011;11070;51.336;12.340;2023-04-03T02:11:39;3.33;;;1.80;;
2061;SDS011;11070;51.336;12.340;2023-04-03T02:14:05;2.50;;;1.90;;
2061;SDS011;11070;51.336;12.340;2023-04-03T02:16:31;4.78;;;2.08;;
2061;SDS011;11070;51.336;12.340;2023-04-03T02:18:57;5.47;;;1.97;;
2061;SDS011;11070;51.336;12.340;2023-04-03T02:21:23;2.90;;;2.07;;
2061;SDS011;11070;51.336;12.340;2023-04-03T02:23:48;4.37;;;2.23;;
2061;SDS011;11070;51.336;12.340;2023-04-03T02:26:15;5.20;;;2.28;;
2061;SDS011;11070;51.336;12.340;2023-04-03T02:28:41;7.47;;;2.10;;
2061;SDS011;11070;51.336;12.340;2023-04-03T02:31:08;4.22;;;2.95;;
2061;SDS011;11070;51.336;12.340;2023-04-03T02:33:34;4.47;;;2.55;;
2061;SDS011;11070;51.336;12.340;2023-04-03T02:36:01;5.00;;;2.22;;
2061;SDS011;11070;51.336;12.340;2023-04-03T02:38:28;3.70;;;1.85;;
2061;SDS011;11070;51.336;12.340;2023-04-03T02:40:59;4.73;;;2.03;;
2061;SDS011;11070;51.336;12.340;2023-04-03T02:43:29;4.55;;;2.53;;
2061;SDS011;11070;51.336;12.340;2023-04-03T02:45:55;2.47;;;1.92;;
2061;SDS011;11070;51.336;12.340;2023-04-03T02:48:21;3.30;;;2.13;;
2061;SDS011;11070;51.336;12.340;2023-04-03T02:50:47;7.05;;;1.90;;
2061;SDS011;11070;51.336;12.340;2023-04-03T02:53:13;3.53;;;1.90;;
2061;SDS011;11070;51.336;12.340;2023-04-03T02:55:38;4.03;;;1.80;;
2061;SDS011;11070;51.336;12.340;2023-04-03T02:58:04;4.10;;;2.50;;
2061;SDS011;11070;51.336;12.340;2023-04-03T03:00:30;5.63;;;2.47;;
2061;SDS011;11070;51.336;12.340;2023-04-03T03:02:56;5.07;;;2.20;;
2061;SDS011;11070;51.336;12.340;2023-04-03T03:05:22;4.63;;;2.17;;
2061;SDS011;11070;51.336;12.340;2023-04-03T03:07:47;4.50;;;2.00;;
2061;SDS011;11070;51.336;12.340;2023-04-03T03:10:13;3.90;;;2.07;;
2061;SDS011;11070;51.336;12.340;2023-04-03T03:12:39;4.95;;;2.15;;
2061;SDS011;11070;51.336;12.340;2023-04-03T03:15:05;4.18;;;2.53;;
2061;SDS011;11070;51.336;12.340;2023-04-03T03:17:32;6.07;;;2.50;;
2061;SDS011;11070;51.336;12.340;2023-04-03T03:19:57;2.60;;;2.40;;
2061;SDS011;11070;51.336;12.340;2023-04-03T03:22:23;3.03;;;2.20;;
2061;SDS011;11070;51.336;12.340;2023-04-03T03:24:49;7.20;;;2.08;;
2061;SDS011;11070;51.336;12.340;2023-04-03T03:27:15;4.90;;;1.83;;
2061;SDS011;11070;51.336;12.340;2023-04-03T03:29:41;4.37;;;2.17;;
2061;SDS011;11070;51.336;12.340;2023-04-03T03:32:07;4.05;;;2.28;;
2061;SDS011;11070;51.336;12.340;2023-04-03T03:34:32;8.03;;;2.70;;
2061;SDS011;11070;51.336;12.340;2023-04-03T03:36:58;4.73;;;1.60;;
2061;SDS011;11070;51.336;12.340;2023-04-03T03:39:24;2.25;;;2.05;;
2061;SDS011;11070;51.336;12.340;2023-04-03T03:41:50;7.47;;;2.37;;
2061;SDS011;11070;51.336;12.340;2023-04-03T03:44:18;3.67;;;2.40;;
2061;SDS011;11070;51.336;12.340;2023-04-03T03:46:44;6.10;;;3.00;;
2061;SDS011;11070;51.336;12.340;2023-04-03T03:49:10;6.10;;;2.23;;
2061;SDS011;11070;51.336;12.340;2023-04-03T03:51:36;3.55;;;2.50;;
2061;SDS011;11070;51.336;12.340;2023-04-03T03:54:02;4.50;;;2.28;;
2061;SDS011;11070;51.336;12.340;2023-04-03T03:56:29;4.63;;;3.67;;
2061;SDS011;11070;51.336;12.340;2023-04-03T03:58:54;6.00;;;2.50;;
2061;SDS011;11070;51.336;12.340;2023-04-03T04:01:21;3.60;;;2.35;;
2061;SDS011;11070;51.336;12.340;2023-04-03T04:03:48;5.57;;;2.53;;
2061;SDS011;11070;51.336;12.340;2023-04-03T04:06:14;3.92;;;2.80;;
2061;SDS011;11070;51.336;12.340;2023-04-03T04:08:40;3.13;;;2.08;;
2061;SDS011;11070;51.336;12.340;2023-04-03T04:11:06;7.77;;;2.90;;
2061;SDS011;11070;51.336;12.340;2023-04-03T04:13:32;4.00;;;2.47;;
2061;SDS011;11070;51.336;12.340;2023-04-03T04:15:57;8.63;;;2.70;;
2061;SDS011;11070;51.336;12.340;2023-04-03T04:18:23;3.70;;;2.72;;
2061;SDS011;11070;51.336;12.340;2023-04-03T04:20:49;4.23;;;2.53;;
2061;SDS011;11070;51.336;12.340;2023-04-03T04:23:16;6.10;;;2.60;;
2061;SDS011;11070;51.336;12.340;2023-04-03T04:25:45;4.93;;;2.50;;
2061;SDS011;11070;51.336;12.340;2023-04-03T04:28:12;5.40;;;2.42;;
2061;SDS011;11070;51.336;12.340;2023-04-03T04:30:37;6.40;;;2.50;;
2061;SDS011;11070;51.336;12.340;2023-04-03T04:33:03;3.80;;;2.43;;
2061;SDS011;11070;51.336;12.340;2023-04-03T04:35:29;8.48;;;2.60;;
2061;SDS011;11070;51.336;12.340;2023-04-03T04:37:55;5.50;;;3.70;;
2061;SDS011;11070;51.336;12.340;2023-04-03T04:40:21;6.73;;;3.10;;
2061;SDS011;11070;51.336;12.340;2023-04-03T04:42:47;2.70;;;2.50;;
2061;SDS011;11070;51.336;12.340;2023-04-03T04:45:12;6.33;;;3.27;;
2061;SDS011;11070;51.336;12.340;2023-04-03T04:47:39;6.53;;;3.38;;
2061;SDS011;11070;51.336;12.340;2023-04-03T04:50:05;4.17;;;3.10;;
2061;SDS011;11070;51.336;12.340;2023-04-03T04:52:31;10.38;;;3.75;;
2061;SDS011;11070;51.336;12.340;2023-04-03T04:54:57;7.00;;;3.03;;
2061;SDS011;11070;51.336;12.340;2023-04-03T04:57:23;8.50;;;3.03;;
2061;SDS011;11070;51.336;12.340;2023-04-03T04:59:49;6.23;;;3.00;;
2061;SDS011;11070;51.336;12.340;2023-04-03T05:02:15;4.75;;;2.35;;
2061;SDS011;11070;51.336;12.340;2023-04-03T05:04:41;6.93;;;2.53;;
2061;SDS011;11070;51.336;12.340;2023-04-03T05:07:06;3.60;;;2.03;;
2061;SDS011;11070;51.336;12.340;2023-04-03T05:09:32;6.27;;;2.90;;
2061;SDS011;11070;51.336;12.340;2023-04-03T05:11:58;12.53;;;2.80;;
2061;SDS011;11070;51.336;12.340;2023-04-03T05:14:23;3.90;;;2.37;;
2061;SDS011;11070;51.336;12.340;2023-04-03T05:16:49;4.03;;;2.27;;
2061;SDS011;11070;51.336;12.340;2023-04-03T05:19:18;3.20;;;2.22;;
2061;SDS011;11070;51.336;12.340;2023-04-03T05:21:45;6.10;;;2.60;;
2061;SDS011;11070;51.336;12.340;2023-04-03T05:24:11;4.18;;;2.33;;
2061;SDS011;11070;51.336;12.340;2023-04-03T05:26:37;3.60;;;2.67;;
2061;SDS011;11070;51.336;12.340;2023-04-03T05:29:03;4.88;;;2.50;;
2061;SDS011;11070;51.336;12.340;2023-04-03T05:31:29;6.27;;;3.10;;
2061;SDS011;11070;51.336;12.340;2023-04-03T05:33:55;5.73;;;2.67;;
2061;SDS011;11070;51.336;12.340;2023-04-03T05:36:21;5.70;;;3.22;;
2061;SDS011;11070;51.336;12.340;2023-04-03T05:38:47;3.53;;;2.63;;
2061;SDS011;11070;51.336;12.340;2023-04-03T05:41:13;4.30;;;2.38;;
2061;SDS011;11070;51.336;12.340;2023-04-03T05:43:40;5.53;;;2.38;;
2061;SDS011;11070;51.336;12.340;2023-04-03T05:46:13;4.75;;;2.28;;
2061;SDS011;11070;51.336;12.340;2023-04-03T05:48:41;6.47;;;2.63;;
2061;SDS011;11070;51.336;12.340;2023-04-03T05:51:09;5.10;;;2.50;;
2061;SDS011;11070;51.336;12.340;2023-04-03T05:53:44;3.70;;;2.22;;
2061;SDS011;11070;51.336;12.340;2023-04-03T05:56:10;5.72;;;2.42;;
2061;SDS011;11070;51.336;12.340;2023-04-03T05:58:36;3.55;;;2.55;;
2061;SDS011;11070;51.336;12.340;2023-04-03T06:01:02;4.40;;;2.67;;
2061;SDS011;11070;51.336;12.340;2023-04-03T06:03:28;4.57;;;2.43;;
2061;SDS011;11070;51.336;12.340;2023-04-03T06:05:53;4.90;;;2.70;;
2061;SDS011;11070;51.336;12.340;2023-04-03T06:08:19;5.83;;;2.50;;
2061;SDS011;11070;51.336;12.340;2023-04-03T06:10:45;7.73;;;2.80;;
2061;SDS011;11070;51.336;12.340;2023-04-03T06:13:11;6.13;;;2.50;;
2061;SDS011;11070;51.336;12.340;2023-04-03T06:15:37;3.60;;;2.50;;
2061;SDS011;11070;51.336;12.340;2023-04-03T06:18:04;4.65;;;2.75;;
2061;SDS011;11070;51.336;12.340;2023-04-03T06:20:30;6.67;;;2.80;;
2061;SDS011;11070;51.336;12.340;2023-04-03T06:22:56;3.80;;;2.43;;
2061;SDS011;11070;51.336;12.340;2023-04-03T06:25:22;7.00;;;2.53;;
2061;SDS011;11070;51.336;12.340;2023-04-03T06:27:47;4.03;;;2.27;;
2061;SDS011;11070;51.336;12.340;2023-04-03T06:30:13;6.43;;;4.03;;
2061;SDS011;11070;51.336;12.340;2023-04-03T06:32:39;6.60;;;3.55;;
2061;SDS011;11070;51.336;12.340;2023-04-03T06:35:05;14.17;;;4.73;;
2061;SDS011;11070;51.336;12.340;2023-04-03T06:37:31;11.93;;;5.78;;
2061;SDS011;11070;51.336;12.340;2023-04-03T06:39:57;9.65;;;5.40;;
2061;SDS011;11070;51.336;12.340;2023-04-03T06:42:25;7.25;;;3.42;;
2061;SDS011;11070;51.336;12.340;2023-04-03T06:44:51;11.30;;;6.50;;
2061;SDS011;11070;51.336;12.340;2023-04-03T06:47:17;8.17;;;4.00;;
2061;SDS011;11070;51.336;12.340;2023-04-03T06:49:43;5.07;;;3.17;;
2061;SDS011;11070;51.336;12.340;2023-04-03T06:52:09;12.18;;;5.00;;
2061;SDS011;11070;51.336;12.340;2023-04-03T06:54:37;13.60;;;6.00;;
2061;SDS011;11070;51.336;12.340;2023-04-03T06:57:03;15.63;;;9.10;;
2061;SDS011;11070;51.336;12.340;2023-04-03T06:59:29;20.40;;;11.85;;
2061;SDS011;11070;51.336;12.340;2023-04-03T07:01:54;18.83;;;9.87;;
2061;SDS011;11070;51.336;12.340;2023-04-03T07:04:20;23.33;;;13.80;;
2061;SDS011;11070;51.336;12.340;2023-04-03T07:06:46;14.07;;;8.07;;
2061;SDS011;11070;51.336;12.340;2023-04-03T07:09:13;19.20;;;9.93;;
2061;SDS011;11070;51.336;12.340;2023-04-03T07:11:39;17.52;;;10.57;;
2061;SDS011;11070;51.336;12.340;2023-04-03T07:14:05;22.08;;;10.77;;
2061;SDS011;11070;51.336;12.340;2023-04-03T07:16:33;15.07;;;9.00;;
2061;SDS011;11070;51.336;12.340;2023-04-03T07:18:59;16.15;;;9.43;;
2061;SDS011;11070;51.336;12.340;2023-04-03T07:21:26;15.77;;;9.27;;
2061;SDS011;11070;51.336;12.340;2023-04-03T07:23:52;23.85;;;12.93;;
2061;SDS011;11070;51.336;12.340;2023-04-03T07:26:18;17.73;;;12.13;;
2061;SDS011;11070;51.336;12.340;2023-04-03T07:28:45;19.08;;;10.48;;
2061;SDS011;11070;51.336;12.340;2023-04-03T07:31:13;16.92;;;10.75;;
2061;SDS011;11070;51.336;12.340;2023-04-03T07:33:40;18.40;;;10.60;;
2061;SDS011;11070;51.336;12.340;2023-04-03T07:36:07;7.47;;;5.60;;
2061;SDS011;11070;51.336;12.340;2023-04-03T07:38:36;10.82;;;4.63;;
2061;SDS011;11070;51.336;12.340;2023-04-03T07:41:02;8.77;;;5.00;;
2061;SDS011;11070;51.336;12.340;2023-04-03T07:43:29;6.97;;;5.00;;
2061;SDS011;11070;51.336;12.340;2023-04-03T07:45:55;6.32;;;4.45;;
2061;SDS011;11070;51.336;12.340;2023-04-03T07:48:21;6.90;;;4.40;;
2061;SDS011;11070;51.336;12.340;2023-04-03T07:50:48;6.00;;;2.08;;
2061;SDS011;11070;51.336;12.340;2023-04-03T07:53:14;5.95;;;3.17;;
2061;SDS011;11070;51.336;12.340;2023-04-03T07:55:40;5.00;;;3.37;;
2061;SDS011;11070;51.336;12.340;2023-04-03T07:58:13;6.20;;;2.92;;
2061;SDS011;11070;51.336;12.340;2023-04-03T08:00:40;3.88;;;3.25;;
2061;SDS011;11070;51.336;12.340;2023-04-03T08:03:06;2.90;;;2.20;;
2061;SDS011;11070;51.336;12.340;2023-04-03T08:05:41;6.80;;;4.43;;
2061;SDS011;11070;51.336;12.340;2023-04-03T08:08:08;3.35;;;2.20;;
2061;SDS011;11070;51.336;12.340;2023-04-03T08:10:35;6.80;;;2.60;;
2061;SDS011;11070;51.336;12.340;2023-04-03T08:13:02;4.20;;;2.25;;
2061;SDS011;11070;51.336;12.340;2023-04-03T08:15:29;5.18;;;3.15;;
2061;SDS011;11070;51.336;12.340;2023-04-03T08:17:55;8.05;;;2.72;;
2061;SDS011;11070;51.336;12.340;2023-04-03T08:20:21;7.20;;;2.67;;
2061;SDS011;11070;51.336;12.340;2023-04-03T08:22:47;4.83;;;2.93;;
2061;SDS011;11070;51.336;12.340;2023-04-03T08:25:12;6.10;;;2.20;;
2061;SDS011;11070;51.336;12.340;2023-04-03T08:27:38;1.90;;;1.70;;
2061;SDS011;11070;51.336;12.340;2023-04-03T08:30:04;1.93;;;1.70;;
2061;SDS011;11070;51.336;12.340;2023-04-03T08:32:32;1.95;;;1.65;;
2061;SDS011;11070;51.336;12.340;2023-04-03T08:34:59;3.28;;;1.75;;
2061;SDS011;11070;51.336;12.340;2023-04-03T08:37:25;2.57;;;1.47;;
2061;SDS011;11070;51.336;12.340;2023-04-03T08:39:51;1.67;;;1.40;;
2061;SDS011;11070;51.336;12.340;2023-04-03T08:45:12;3.95;;;1.90;;
2061;SDS011;11070;51.336;12.340;2023-04-03T08:47:53;5.50;;;2.42;;
2061;SDS011;11070;51.336;12.340;2023-04-03T08:50:30;3.60;;;1.80;;
2061;SDS011;11070;51.336;12.340;2023-04-03T08:53:05;3.33;;;1.70;;
2061;SDS011;11070;51.336;12.340;2023-04-03T08:55:54;2.90;;;1.40;;
2061;SDS011;11070;51.336;12.340;2023-04-03T09:00:58;3.05;;;2.05;;
2061;SDS011;11070;51.336;12.340;2023-04-03T09:03:30;2.65;;;1.90;;
2061;SDS011;11070;51.336;12.340;2023-04-03T09:06:11;2.40;;;1.80;;
2061;SDS011;11070;51.336;12.340;2023-04-03T09:11:16;3.15;;;1.48;;
2061;SDS011;11070;51.336;12.340;2023-04-03T09:16:20;3.90;;;1.77;;
2061;SDS011;11070;51.336;12.340;2023-04-03T09:18:54;2.03;;;1.30;;
2061;SDS011;11070;51.336;12.340;2023-04-03T09:21:32;2.13;;;1.63;;
2061;SDS011;11070;51.336;12.340;2023-04-03T09:24:02;2.45;;;1.30;;
2061;SDS011;11070;51.336;12.340;2023-04-03T09:26:36;1.95;;;1.23;;
2061;SDS011;11070;51.336;12.340;2023-04-03T09:29:05;1.85;;;1.02;;
2061;SDS011;11070;51.336;12.340;2023-04-03T09:31:37;2.28;;;1.20;;
2061;SDS011;11070;51.336;12.340;2023-04-03T09:34:06;5.63;;;1.75;;
2061;SDS011;11070;51.336;12.340;2023-04-03T09:36:56;3.17;;;1.60;;
2061;SDS011;11070;51.336;12.340;2023-04-03T09:39:31;2.05;;;1.42;;
2061;SDS011;11070;51.336;12.340;2023-04-03T09:42:20;1.85;;;1.20;;
2061;SDS011;11070;51.336;12.340;2023-04-03T09:45:00;2.15;;;1.38;;
2061;SDS011;11070;51.336;12.340;2023-04-03T09:47:29;1.90;;;1.60;;
2061;SDS011;11070;51.336;12.340;2023-04-03T09:52:42;5.85;;;1.92;;
2061;SDS011;11070;51.336;12.340;2023-04-03T09:55:16;2.88;;;1.50;;
2061;SDS011;11070;51.336;12.340;2023-04-03T09:57:46;1.55;;;1.42;;
2061;SDS011;11070;51.336;12.340;2023-04-03T10:00:23;3.40;;;1.80;;
2061;SDS011;11070;51.336;12.340;2023-04-03T10:02:51;2.75;;;1.50;;
2061;SDS011;11070;51.336;12.340;2023-04-03T10:10:43;2.90;;;1.40;;
2061;SDS011;11070;51.336;12.340;2023-04-03T10:13:12;1.55;;;1.30;;
2061;SDS011;11070;51.336;12.340;2023-04-03T10:15:40;1.88;;;1.45;;
2061;SDS011;11070;51.336;12.340;2023-04-03T10:20:47;1.77;;;1.45;;
2061;SDS011;11070;51.336;12.340;2023-04-03T10:23:26;3.63;;;1.35;;
2061;SDS011;11070;51.336;12.340;2023-04-03T10:35:25;3.10;;;1.40;;
2061;SDS011;11070;51.336;12.340;2023-04-03T10:38:29;2.95;;;1.52;;
2061;SDS011;11070;51.336;12.340;2023-04-03T10:41:59;3.85;;;1.73;;
2061;SDS011;11070;51.336;12.340;2023-04-03T10:44:04;2.35;;;1.70;;
2061;SDS011;11070;51.336;12.340;2023-04-03T10:46:49;2.40;;;1.30;;
2061;SDS011;11070;51.336;12.340;2023-04-03T10:52:02;2.53;;;1.65;;
2061;SDS011;11070;51.336;12.340;2023-04-03T10:54:39;1.85;;;1.75;;
2061;SDS011;11070;51.336;12.340;2023-04-03T10:57:11;1.92;;;1.58;;
2061;SDS011;11070;51.336;12.340;2023-04-03T10:59:38;2.13;;;1.60;;
2061;SDS011;11070;51.336;12.340;2023-04-03T11:02:23;1.90;;;1.70;;
2061;SDS011;11070;51.336;12.340;2023-04-03T11:07:52;2.10;;;1.50;;
2061;SDS011;11070;51.336;12.340;2023-04-03T11:10:21;2.42;;;1.30;;
2061;SDS011;11070;51.336;12.340;2023-04-03T11:12:57;1.50;;;1.30;;
2061;SDS011;11070;51.336;12.340;2023-04-03T11:15:27;3.00;;;1.73;;
2061;SDS011;11070;51.336;12.340;2023-04-03T11:17:59;4.80;;;1.90;;
2061;SDS011;11070;51.336;12.340;2023-04-03T11:20:29;2.45;;;1.80;;
2061;SDS011;11070;51.336;12.340;2023-04-03T11:23:01;3.55;;;1.88;;
2061;SDS011;11070;51.336;12.340;2023-04-03T11:25:46;1.52;;;1.42;;
2061;SDS011;11070;51.336;12.340;2023-04-03T11:28:18;4.70;;;1.77;;
2061;SDS011;11070;51.336;12.340;2023-04-03T11:30:50;2.07;;;1.70;;
2061;SDS011;11070;51.336;12.340;2023-04-03T11:38:47;2.25;;;1.85;;
2061;SDS011;11070;51.336;12.340;2023-04-03T11:41:16;11.43;;;2.10;;
2061;SDS011;11070;51.336;12.340;2023-04-03T11:44:00;2.75;;;1.40;;
2061;SDS011;11070;51.336;12.340;2023-04-03T11:47:10;1.80;;;1.70;;
2061;SDS011;11070;51.336;12.340;2023-04-03T12:05:49;1.80;;;1.70;;
2061;SDS011;11070;51.336;12.340;2023-04-03T12:08:44;1.92;;;1.60;;
2061;SDS011;11070;51.336;12.340;2023-04-03T12:24:28;1.90;;;1.67;;
2061;SDS011;11070;51.336;12.340;2023-04-03T12:46:42;3.33;;;1.70;;
2061;SDS011;11070;51.336;12.340;2023-04-03T12:51:51;2.72;;;1.80;;
2061;SDS011;11070;51.336;12.340;2023-04-03T12:57:38;6.57;;;2.10;;
2061;SDS011;11070;51.336;12.340;2023-04-03T12:59:48;3.42;;;2.47;;
2061;SDS011;11070;51.336;12.340;2023-04-03T13:05:04;2.50;;;1.95;;
2061;SDS011;11070;51.336;12.340;2023-04-03T13:07:34;2.90;;;1.90;;
2061;SDS011;11070;51.336;12.340;2023-04-03T13:12:33;3.85;;;1.85;;
2061;SDS011;11070;51.336;12.340;2023-04-03T13:15:02;2.33;;;1.75;;
2061;SDS011;11070;51.336;12.340;2023-04-03T13:17:40;4.20;;;2.17;;
2061;SDS011;11070;51.336;12.340;2023-04-03T13:20:14;2.05;;;1.95;;
2061;SDS011;11070;51.336;12.340;2023-04-03T13:25:27;3.03;;;2.13;;
2061;SDS011;11070;51.336;12.340;2023-04-03T13:27:56;2.33;;;2.13;;
2061;SDS011;11070;51.336;12.340;2023-04-03T13:30:25;3.28;;;2.10;;
2061;SDS011;11070;51.336;12.340;2023-04-03T13:32:55;2.58;;;1.80;;
2061;SDS011;11070;51.336;12.340;2023-04-03T13:35:28;3.90;;;1.90;;
2061;SDS011;11070;51.336;12.340;2023-04-03T13:37:58;3.05;;;1.75;;
2061;SDS011;11070;51.336;12.340;2023-04-03T13:40:26;2.67;;;2.47;;
2061;SDS011;11070;51.336;12.340;2023-04-03T13:43:03;3.07;;;1.80;;
2061;SDS011;11070;51.336;12.340;2023-04-03T13:45:52;2.45;;;2.17;;
2061;SDS011;11070;51.336;12.340;2023-04-03T13:48:23;2.10;;;1.60;;
2061;SDS011;11070;51.336;12.340;2023-04-03T13:50:50;2.38;;;1.92;;
2061;SDS011;11070;51.336;12.340;2023-04-03T13:53:25;3.17;;;2.28;;
2061;SDS011;11070;51.336;12.340;2023-04-03T13:58:21;2.23;;;1.57;;
2061;SDS011;11070;51.336;12.340;2023-04-03T14:03:27;2.30;;;1.90;;
2061;SDS011;11070;51.336;12.340;2023-04-03T14:06:06;2.53;;;1.95;;
2061;SDS011;11070;51.336;12.340;2023-04-03T14:08:40;2.72;;;2.00;;
2061;SDS011;11070;51.336;12.340;2023-04-03T14:11:08;3.92;;;2.08;;
2061;SDS011;11070;51.336;12.340;2023-04-03T14:13:41;2.70;;;2.50;;
2061;SDS011;11070;51.336;12.340;2023-04-03T14:16:11;2.35;;;2.10;;
2061;SDS011;11070;51.336;12.340;2023-04-03T14:18:41;2.75;;;2.08;;
2061;SDS011;11070;51.336;12.340;2023-04-03T14:21:10;2.20;;;2.00;;
2061;SDS011;11070;51.336;12.340;2023-04-03T14:23:37;2.70;;;2.40;;
2061;SDS011;11070;51.336;12.340;2023-04-03T14:26:04;2.35;;;2.00;;
2061;SDS011;11070;51.336;12.340;2023-04-03T14:28:34;2.08;;;1.92;;
2061;SDS011;11070;51.336;12.340;2023-04-03T14:31:00;3.93;;;2.20;;
2061;SDS011;11070;51.336;12.340;2023-04-03T14:33:26;2.40;;;1.93;;
2061;SDS011;11070;51.336;12.340;2023-04-03T14:35:54;3.75;;;1.70;;
2061;SDS011;11070;51.336;12.340;2023-04-03T14:38:30;3.67;;;2.10;;
2061;SDS011;11070;51.336;12.340;2023-04-03T14:40:56;1.73;;;1.60;;
2061;SDS011;11070;51.336;12.340;2023-04-03T14:43:22;4.03;;;3.13;;
2061;SDS011;11070;51.336;12.340;2023-04-03T14:45:48;4.57;;;2.08;;
2061;SDS011;11070;51.336;12.340;2023-04-03T14:48:17;2.78;;;2.10;;
2061;SDS011;11070;51.336;12.340;2023-04-03T14:50:48;2.40;;;1.90;;
2061;SDS011;11070;51.336;12.340;2023-04-03T14:53:15;1.70;;;1.60;;
2061;SDS011;11070;51.336;12.340;2023-04-03T14:55:42;4.03;;;1.75;;
2061;SDS011;11070;51.336;12.340;2023-04-03T14:58:12;4.78;;;1.92;;
2061;SDS011;11070;51.336;12.340;2023-04-03T15:00:39;2.60;;;2.00;;
2061;SDS011;11070;51.336;12.340;2023-04-03T15:03:05;2.25;;;2.05;;
2061;SDS011;11070;51.336;12.340;2023-04-03T15:05:34;8.35;;;5.00;;
2061;SDS011;11070;51.336;12.340;2023-04-03T15:08:02;5.72;;;1.90;;
2061;SDS011;11070;51.336;12.340;2023-04-03T15:10:29;5.60;;;2.10;;
2061;SDS011;11070;51.336;12.340;2023-04-03T15:12:56;2.65;;;1.70;;
2061;SDS011;11070;51.336;12.340;2023-04-03T15:15:22;1.60;;;1.50;;
2061;SDS011;11070;51.336;12.340;2023-04-03T15:17:53;2.42;;;1.98;;
2061;SDS011;11070;51.336;12.340;2023-04-03T15:20:22;2.72;;;2.25;;
2061;SDS011;11070;51.336;12.340;2023-04-03T15:22:49;2.58;;;2.00;;
2061;SDS011;11070;51.336;12.340;2023-04-03T15:25:15;3.97;;;2.13;;
2061;SDS011;11070;51.336;12.340;2023-04-03T15:27:41;2.30;;;1.90;;
2061;SDS011;11070;51.336;12.340;2023-04-03T15:30:08;3.30;;;2.40;;
2061;SDS011;11070;51.336;12.340;2023-04-03T15:32:39;2.42;;;2.33;;
2061;SDS011;11070;51.336;12.340;2023-04-03T15:35:05;2.95;;;2.53;;
2061;SDS011;11070;51.336;12.340;2023-04-03T15:37:31;3.30;;;3.00;;
2061;SDS011;11070;51.336;12.340;2023-04-03T15:39:57;2.70;;;2.50;;
2061;SDS011;11070;51.336;12.340;2023-04-03T15:42:23;4.57;;;2.83;;
2061;SDS011;11070;51.336;12.340;2023-04-03T15:44:49;8.80;;;2.77;;
2061;SDS011;11070;51.336;12.340;2023-04-03T15:47:15;3.70;;;2.53;;
2061;SDS011;11070;51.336;12.340;2023-04-03T15:49:41;3.07;;;2.40;;
2061;SDS011;11070;51.336;12.340;2023-04-03T15:52:07;2.75;;;2.55;;
2061;SDS011;11070;51.336;12.340;2023-04-03T15:54:32;2.60;;;2.40;;
2061;SDS011;11070;51.336;12.340;2023-04-03T15:56:58;3.73;;;2.40;;
2061;SDS011;11070;51.336;12.340;2023-04-03T15:59:24;5.00;;;2.20;;
2061;SDS011;11070;51.336;12.340;2023-04-03T16:01:50;4.57;;;2.10;;
2061;SDS011;11070;51.336;12.340;2023-04-03T16:04:17;3.75;;;2.47;;
2061;SDS011;11070;51.336;12.340;2023-04-03T16:06:43;3.67;;;2.35;;
2061;SDS011;11070;51.336;12.340;2023-04-03T16:09:09;3.83;;;2.80;;
2061;SDS011;11070;51.336;12.340;2023-04-03T16:11:35;3.35;;;2.90;;
2061;SDS011;11070;51.336;12.340;2023-04-03T16:14:04;3.53;;;2.78;;
2061;SDS011;11070;51.336;12.340;2023-04-03T16:16:30;2.42;;;1.92;;
2061;SDS011;11070;51.336;12.340;2023-04-03T16:18:56;3.37;;;2.93;;
2061;SDS011;11070;51.336;12.340;2023-04-03T16:21:22;2.60;;;2.40;;
2061;SDS011;11070;51.336;12.340;2023-04-03T16:23:48;4.80;;;3.00;;
2061;SDS011;11070;51.336;12.340;2023-04-03T16:26:15;4.00;;;3.47;;
2061;SDS011;11070;51.336;12.340;2023-04-03T16:28:42;4.57;;;3.60;;
2061;SDS011;11070;51.336;12.340;2023-04-03T16:31:08;6.20;;;3.53;;
2061;SDS011;11070;51.336;12.340;2023-04-03T16:33:34;4.07;;;3.70;;
2061;SDS011;11070;51.336;12.340;2023-04-03T16:36:01;4.00;;;3.60;;
2061;SDS011;11070;51.336;12.340;2023-04-03T16:38:29;3.22;;;2.97;;
2061;SDS011;11070;51.336;12.340;2023-04-03T16:40:55;4.75;;;3.83;;
2061;SDS011;11070;51.336;12.340;2023-04-03T16:43:29;3.38;;;3.03;;
2061;SDS011;11070;51.336;12.340;2023-04-03T16:45:56;3.42;;;3.22;;
2061;SDS011;11070;51.336;12.340;2023-04-03T16:48:22;3.28;;;3.08;;